sensor_id;sensor_type;location;lat;lon;timestamp;P1;durP1;ratioP1;P2;durP2;ratioP2
18905;SDS011;9585;51.018;4.282;2023-07-13T00:02:08;4.32;;;1.42;;
18905;SDS011;9585;51.018;4.282;2023-07-13T00:04:35;4.40;;;1.67;;
18905;SDS011;9585;51.018;4.282;2023-07-13T00:07:03;4.88;;;1.48;;
18905;SDS011;9585;51.018;4.282;2023-07-13T00:09:31;5.60;;;1.63;;
18905;SDS011;9585;51.018;4.282;2023-07-13T00:11:58;5.70;;;1.75;;
18905;SDS011;9585;51.018;4.282;2023-07-13T00:14:28;6.38;;;1.90;;
18905;SDS011;9585;51.018;4.282;2023-07-13T00:16:56;3.45;;;1.30;;
18905;SDS011;9585;51.018;4.282;2023-07-13T00:19:25;7.75;;;1.60;;
18905;SDS011;9585;51.018;4.282;2023-07-13T00:21:53;3.35;;;1.30;;
18905;SDS011;9585;51.018;4.282;2023-07-13T00:24:21;3.90;;;1.48;;
18905;SDS011;9585;51.018;4.282;2023-07-13T00:26:49;4.30;;;1.23;;
18905;SDS011;9585;51.018;4.282;2023-07-13T00:29:16;4.20;;;1.55;;
18905;SDS011;9585;51.018;4.282;2023-07-13T00:31:45;3.63;;;1.52;;
18905;SDS011;9585;51.018;4.282;2023-07-13T00:34:13;3.08;;;1.15;;
18905;SDS011;9585;51.018;4.282;2023-07-13T00:36:40;4.45;;;1.60;;
18905;SDS011;9585;51.018;4.282;2023-07-13T00:39:08;3.90;;;1.40;;
18905;SDS011;9585;51.018;4.282;2023-07-13T00:41:35;4.05;;;1.45;;
18905;SDS011;9585;51.018;4.282;2023-07-13T00:44:03;4.95;;;1.80;;
18905;SDS011;9585;51.018;4.282;2023-07-13T00:46:32;5.78;;;1.38;;
18905;SDS011;9585;51.018;4.282;2023-07-13T00:49:02;7.35;;;1.50;;
18905;SDS011;9585;51.018;4.282;2023-07-13T00:51:35;8.30;;;1.88;;
18905;SDS011;9585;51.018;4.282;2023-07-13T00:54:12;3.22;;;1.40;;
18905;SDS011;9585;51.018;4.282;2023-07-13T00:56:41;4.03;;;1.63;;
18905;SDS011;9585;51.018;4.282;2023-07-13T00:59:11;4.45;;;1.60;;
18905;SDS011;9585;51.018;4.282;2023-07-13T01:01:41;4.30;;;1.48;;
18905;SDS011;9585;51.018;4.282;2023-07-13T01:04:10;2.80;;;1.67;;
18905;SDS011;9585;51.018;4.282;2023-07-13T01:06:38;3.40;;;1.20;;
18905;SDS011;9585;51.018;4.282;2023-07-13T01:09:09;4.85;;;1.70;;
18905;SDS011;9585;51.018;4.282;2023-07-13T01:11:38;4.15;;;1.70;;
18905;SDS011;9585;51.018;4.282;2023-07-13T01:14:06;4.78;;;1.70;;
18905;SDS011;9585;51.018;4.282;2023-07-13T01:16:34;3.25;;;1.52;;
18905;SDS011;9585;51.018;4.282;2023-07-13T01:19:05;3.00;;;1.55;;
18905;SDS011;9585;51.018;4.282;2023-07-13T01:21:43;3.90;;;1.60;;
18905;SDS011;9585;51.018;4.282;2023-07-13T01:24:16;4.00;;;1.60;;
18905;SDS011;9585;51.018;4.282;2023-07-13T01:26:43;6.78;;;2.05;;
18905;SDS011;9585;51.018;4.282;2023-07-13T01:29:11;5.22;;;1.50;;
18905;SDS011;9585;51.018;4.282;2023-07-13T01:31:38;4.60;;;1.52;;
18905;SDS011;9585;51.018;4.282;2023-07-13T01:34:06;5.05;;;1.70;;
18905;SDS011;9585;51.018;4.282;2023-07-13T01:36:33;4.60;;;1.70;;
18905;SDS011;9585;51.018;4.282;2023-07-13T01:39:03;5.32;;;1.67;;
18905;SDS011;9585;51.018;4.282;2023-07-13T01:41:31;2.42;;;1.50;;
18905;SDS011;9585;51.018;4.282;2023-07-13T01:43:58;2.78;;;1.30;;
18905;SDS011;9585;51.018;4.282;2023-07-13T01:46:26;4.82;;;1.60;;
18905;SDS011;9585;51.018;4.282;2023-07-13T01:48:53;4.45;;;1.55;;
18905;SDS011;9585;51.018;4.282;2023-07-13T01:51:21;4.75;;;1.52;;
18905;SDS011;9585;51.018;4.282;2023-07-13T01:53:48;3.92;;;1.70;;
18905;SDS011;9585;51.018;4.282;2023-07-13T01:56:17;3.78;;;1.67;;
18905;SDS011;9585;51.018;4.282;2023-07-13T01:58:45;4.35;;;1.50;;
18905;SDS011;9585;51.018;4.282;2023-07-13T02:01:13;7.28;;;2.10;;
18905;SDS011;9585;51.018;4.282;2023-07-13T02:03:40;4.85;;;1.50;;
18905;SDS011;9585;51.018;4.282;2023-07-13T02:06:08;4.00;;;1.50;;
18905;SDS011;9585;51.018;4.282;2023-07-13T02:08:36;3.70;;;1.75;;
18905;SDS011;9585;51.018;4.282;2023-07-13T02:11:04;5.07;;;1.77;;
18905;SDS011;9585;51.018;4.282;2023-07-13T02:13:32;4.93;;;2.20;;
18905;SDS011;9585;51.018;4.282;2023-07-13T02:16:00;3.80;;;1.77;;
18905;SDS011;9585;51.018;4.282;2023-07-13T02:18:27;7.05;;;2.10;;
18905;SDS011;9585;51.018;4.282;2023-07-13T02:20:55;5.60;;;2.22;;
18905;SDS011;9585;51.018;4.282;2023-07-13T02:23:22;6.38;;;2.20;;
18905;SDS011;9585;51.018;4.282;2023-07-13T02:25:53;5.43;;;1.95;;
18905;SDS011;9585;51.018;4.282;2023-07-13T02:28:21;5.07;;;1.80;;
18905;SDS011;9585;51.018;4.282;2023-07-13T02:30:50;4.97;;;1.92;;
18905;SDS011;9585;51.018;4.282;2023-07-13T02:33:18;11.13;;;2.50;;
18905;SDS011;9585;51.018;4.282;2023-07-13T02:35:45;9.65;;;2.22;;
18905;SDS011;9585;51.018;4.282;2023-07-13T02:38:13;6.55;;;1.80;;
18905;SDS011;9585;51.018;4.282;2023-07-13T02:40:40;6.63;;;2.30;;
18905;SDS011;9585;51.018;4.282;2023-07-13T02:43:08;8.75;;;2.20;;
18905;SDS011;9585;51.018;4.282;2023-07-13T02:45:35;5.97;;;2.00;;
18905;SDS011;9585;51.018;4.282;2023-07-13T02:48:04;5.75;;;2.20;;
18905;SDS011;9585;51.018;4.282;2023-07-13T02:50:32;6.55;;;2.10;;
18905;SDS011;9585;51.018;4.282;2023-07-13T02:52:59;7.15;;;2.13;;
18905;SDS011;9585;51.018;4.282;2023-07-13T02:55:27;8.38;;;1.98;;
18905;SDS011;9585;51.018;4.282;2023-07-13T02:57:54;2.70;;;1.92;;
18905;SDS011;9585;51.018;4.282;2023-07-13T03:00:22;7.43;;;2.55;;
18905;SDS011;9585;51.018;4.282;2023-07-13T03:02:49;6.03;;;1.80;;
18905;SDS011;9585;51.018;4.282;2023-07-13T03:05:19;4.43;;;1.90;;
18905;SDS011;9585;51.018;4.282;2023-07-13T03:07:47;7.53;;;2.45;;
18905;SDS011;9585;51.018;4.282;2023-07-13T03:10:14;5.95;;;2.30;;
18905;SDS011;9585;51.018;4.282;2023-07-13T03:12:42;9.45;;;2.92;;
18905;SDS011;9585;51.018;4.282;2023-07-13T03:15:10;7.82;;;2.03;;
18905;SDS011;9585;51.018;4.282;2023-07-13T03:17:37;6.68;;;2.00;;
18905;SDS011;9585;51.018;4.282;2023-07-13T03:20:06;6.00;;;2.00;;
18905;SDS011;9585;51.018;4.282;2023-07-13T03:22:36;6.30;;;2.00;;
18905;SDS011;9585;51.018;4.282;2023-07-13T03:25:03;7.35;;;2.50;;
18905;SDS011;9585;51.018;4.282;2023-07-13T03:27:32;9.52;;;2.40;;
18905;SDS011;9585;51.018;4.282;2023-07-13T03:29:59;5.57;;;2.10;;
18905;SDS011;9585;51.018;4.282;2023-07-13T03:32:26;5.00;;;2.22;;
18905;SDS011;9585;51.018;4.282;2023-07-13T03:34:54;5.55;;;1.85;;
18905;SDS011;9585;51.018;4.282;2023-07-13T03:37:21;9.82;;;2.70;;
18905;SDS011;9585;51.018;4.282;2023-07-13T03:39:51;11.27;;;2.65;;
18905;SDS011;9585;51.018;4.282;2023-07-13T03:42:18;7.47;;;2.20;;
18905;SDS011;9585;51.018;4.282;2023-07-13T03:44:45;6.03;;;1.90;;
18905;SDS011;9585;51.018;4.282;2023-07-13T03:47:17;9.52;;;2.90;;
18905;SDS011;9585;51.018;4.282;2023-07-13T03:49:45;6.35;;;2.10;;
18905;SDS011;9585;51.018;4.282;2023-07-13T03:52:13;8.48;;;2.70;;
18905;SDS011;9585;51.018;4.282;2023-07-13T03:54:40;4.80;;;2.28;;
18905;SDS011;9585;51.018;4.282;2023-07-13T03:57:09;4.65;;;2.08;;
18905;SDS011;9585;51.018;4.282;2023-07-13T03:59:37;9.30;;;2.55;;
18905;SDS011;9585;51.018;4.282;2023-07-13T04:02:04;7.15;;;2.20;;
18905;SDS011;9585;51.018;4.282;2023-07-13T04:04:32;6.50;;;2.10;;
18905;SDS011;9585;51.018;4.282;2023-07-13T04:07:00;6.53;;;2.30;;
18905;SDS011;9585;51.018;4.282;2023-07-13T04:09:27;9.35;;;2.65;;
18905;SDS011;9585;51.018;4.282;2023-07-13T04:11:55;7.05;;;2.35;;
18905;SDS011;9585;51.018;4.282;2023-07-13T04:14:24;8.88;;;2.53;;
18905;SDS011;9585;51.018;4.282;2023-07-13T04:16:52;8.55;;;2.63;;
18905;SDS011;9585;51.018;4.282;2023-07-13T04:19:20;9.80;;;2.90;;
18905;SDS011;9585;51.018;4.282;2023-07-13T04:21:48;7.97;;;2.42;;
18905;SDS011;9585;51.018;4.282;2023-07-13T04:24:16;8.55;;;2.85;;
18905;SDS011;9585;51.018;4.282;2023-07-13T04:26:44;7.55;;;2.30;;
18905;SDS011;9585;51.018;4.282;2023-07-13T04:29:12;9.38;;;2.75;;
18905;SDS011;9585;51.018;4.282;2023-07-13T04:31:42;10.00;;;2.83;;
18905;SDS011;9585;51.018;4.282;2023-07-13T04:34:09;9.15;;;2.85;;
18905;SDS011;9585;51.018;4.282;2023-07-13T04:36:37;10.25;;;3.05;;
18905;SDS011;9585;51.018;4.282;2023-07-13T04:39:04;7.50;;;2.60;;
18905;SDS011;9585;51.018;4.282;2023-07-13T04:41:34;6.82;;;2.42;;
18905;SDS011;9585;51.018;4.282;2023-07-13T04:44:01;9.40;;;2.47;;
18905;SDS011;9585;51.018;4.282;2023-07-13T04:46:29;7.93;;;2.38;;
18905;SDS011;9585;51.018;4.282;2023-07-13T04:48:58;9.13;;;2.67;;
18905;SDS011;9585;51.018;4.282;2023-07-13T04:51:26;11.63;;;3.00;;
18905;SDS011;9585;51.018;4.282;2023-07-13T04:53:54;13.70;;;2.83;;
18905;SDS011;9585;51.018;4.282;2023-07-13T04:56:22;7.45;;;2.60;;
18905;SDS011;9585;51.018;4.282;2023-07-13T04:58:49;8.55;;;2.50;;
18905;SDS011;9585;51.018;4.282;2023-07-13T05:01:17;6.50;;;2.50;;
18905;SDS011;9585;51.018;4.282;2023-07-13T05:03:45;9.15;;;2.42;;
18905;SDS011;9585;51.018;4.282;2023-07-13T05:06:14;6.53;;;2.10;;
18905;SDS011;9585;51.018;4.282;2023-07-13T05:08:42;10.18;;;2.45;;
18905;SDS011;9585;51.018;4.282;2023-07-13T05:11:10;9.52;;;2.42;;
18905;SDS011;9585;51.018;4.282;2023-07-13T05:13:37;12.30;;;2.53;;
18905;SDS011;9585;51.018;4.282;2023-07-13T05:16:05;11.20;;;2.92;;
18905;SDS011;9585;51.018;4.282;2023-07-13T05:18:33;7.30;;;2.58;;
18905;SDS011;9585;51.018;4.282;2023-07-13T05:21:02;9.80;;;2.67;;
18905;SDS011;9585;51.018;4.282;2023-07-13T05:23:32;6.82;;;2.20;;
18905;SDS011;9585;51.018;4.282;2023-07-13T05:26:02;5.65;;;1.90;;
18905;SDS011;9585;51.018;4.282;2023-07-13T05:28:30;6.20;;;2.63;;
18905;SDS011;9585;51.018;4.282;2023-07-13T05:30:59;8.27;;;2.72;;
18905;SDS011;9585;51.018;4.282;2023-07-13T05:33:26;10.57;;;2.90;;
18905;SDS011;9585;51.018;4.282;2023-07-13T05:35:54;10.82;;;2.58;;
18905;SDS011;9585;51.018;4.282;2023-07-13T05:38:22;7.30;;;2.10;;
18905;SDS011;9585;51.018;4.282;2023-07-13T05:40:52;6.75;;;2.50;;
18905;SDS011;9585;51.018;4.282;2023-07-13T05:43:21;9.73;;;2.67;;
18905;SDS011;9585;51.018;4.282;2023-07-13T05:45:53;8.00;;;2.47;;
18905;SDS011;9585;51.018;4.282;2023-07-13T05:48:21;6.75;;;2.55;;
18905;SDS011;9585;51.018;4.282;2023-07-13T05:50:49;9.15;;;2.53;;
18905;SDS011;9585;51.018;4.282;2023-07-13T05:53:16;9.13;;;2.80;;
18905;SDS011;9585;51.018;4.282;2023-07-13T05:55:45;10.07;;;2.67;;
18905;SDS011;9585;51.018;4.282;2023-07-13T05:58:16;8.77;;;2.58;;
18905;SDS011;9585;51.018;4.282;2023-07-13T06:00:44;5.90;;;2.47;;
18905;SDS011;9585;51.018;4.282;2023-07-13T06:03:12;5.82;;;2.45;;
18905;SDS011;9585;51.018;4.282;2023-07-13T06:05:40;7.72;;;2.30;;
18905;SDS011;9585;51.018;4.282;2023-07-13T06:08:07;6.85;;;2.30;;
18905;SDS011;9585;51.018;4.282;2023-07-13T06:10:35;9.77;;;2.45;;
18905;SDS011;9585;51.018;4.282;2023-07-13T06:13:04;7.40;;;2.42;;
18905;SDS011;9585;51.018;4.282;2023-07-13T06:15:33;7.35;;;2.50;;
18905;SDS011;9585;51.018;4.282;2023-07-13T06:18:01;11.52;;;2.47;;
18905;SDS011;9585;51.018;4.282;2023-07-13T06:20:29;8.32;;;2.60;;
18905;SDS011;9585;51.018;4.282;2023-07-13T06:22:56;7.00;;;2.38;;
18905;SDS011;9585;51.018;4.282;2023-07-13T06:25:24;6.93;;;3.03;;
18905;SDS011;9585;51.018;4.282;2023-07-13T06:27:53;5.32;;;2.40;;
18905;SDS011;9585;51.018;4.282;2023-07-13T06:30:20;5.78;;;2.30;;
18905;SDS011;9585;51.018;4.282;2023-07-13T06:32:50;6.60;;;2.50;;
18905;SDS011;9585;51.018;4.282;2023-07-13T06:35:17;10.57;;;2.65;;
18905;SDS011;9585;51.018;4.282;2023-07-13T06:37:45;8.40;;;2.40;;
18905;SDS011;9585;51.018;4.282;2023-07-13T06:40:13;8.50;;;2.78;;
18905;SDS011;9585;51.018;4.282;2023-07-13T06:42:41;7.95;;;2.40;;
18905;SDS011;9585;51.018;4.282;2023-07-13T06:45:08;8.35;;;2.25;;
18905;SDS011;9585;51.018;4.282;2023-07-13T06:47:36;7.43;;;2.55;;
18905;SDS011;9585;51.018;4.282;2023-07-13T06:50:05;7.20;;;2.08;;
18905;SDS011;9585;51.018;4.282;2023-07-13T06:52:34;9.18;;;2.30;;
18905;SDS011;9585;51.018;4.282;2023-07-13T06:55:01;8.38;;;2.47;;
18905;SDS011;9585;51.018;4.282;2023-07-13T06:57:29;7.22;;;2.10;;
18905;SDS011;9585;51.018;4.282;2023-07-13T06:59:57;9.02;;;2.65;;
18905;SDS011;9585;51.018;4.282;2023-07-13T07:02:25;6.28;;;2.20;;
18905;SDS011;9585;51.018;4.282;2023-07-13T07:04:52;7.30;;;2.17;;
18905;SDS011;9585;51.018;4.282;2023-07-13T07:07:23;7.25;;;2.20;;
18905;SDS011;9585;51.018;4.282;2023-07-13T07:09:50;9.27;;;2.40;;
18905;SDS011;9585;51.018;4.282;2023-07-13T07:12:18;6.72;;;2.17;;
18905;SDS011;9585;51.018;4.282;2023-07-13T07:14:46;7.05;;;2.22;;
18905;SDS011;9585;51.018;4.282;2023-07-13T07:17:14;4.95;;;1.90;;
18905;SDS011;9585;51.018;4.282;2023-07-13T07:19:42;6.43;;;1.80;;
18905;SDS011;9585;51.018;4.282;2023-07-13T07:22:09;6.63;;;2.35;;
18905;SDS011;9585;51.018;4.282;2023-07-13T07:24:38;8.00;;;2.50;;
18905;SDS011;9585;51.018;4.282;2023-07-13T07:27:06;10.73;;;2.50;;
18905;SDS011;9585;51.018;4.282;2023-07-13T07:29:33;7.00;;;2.05;;
18905;SDS011;9585;51.018;4.282;2023-07-13T07:32:01;5.18;;;1.98;;
18905;SDS011;9585;51.018;4.282;2023-07-13T07:34:29;5.47;;;2.03;;
18905;SDS011;9585;51.018;4.282;2023-07-13T07:36:58;7.65;;;2.10;;
18905;SDS011;9585;51.018;4.282;2023-07-13T07:39:31;6.47;;;1.67;;
18905;SDS011;9585;51.018;4.282;2023-07-13T07:42:01;5.70;;;1.70;;
18905;SDS011;9585;51.018;4.282;2023-07-13T07:44:30;6.03;;;2.50;;
18905;SDS011;9585;51.018;4.282;2023-07-13T07:46:58;6.40;;;1.80;;
18905;SDS011;9585;51.018;4.282;2023-07-13T07:49:26;6.80;;;2.08;;
18905;SDS011;9585;51.018;4.282;2023-07-13T07:51:53;7.75;;;2.17;;
18905;SDS011;9585;51.018;4.282;2023-07-13T07:54:21;5.72;;;1.80;;
18905;SDS011;9585;51.018;4.282;2023-07-13T07:56:49;6.93;;;2.22;;
18905;SDS011;9585;51.018;4.282;2023-07-13T07:59:18;7.05;;;2.30;;
18905;SDS011;9585;51.018;4.282;2023-07-13T08:01:45;7.78;;;2.60;;
18905;SDS011;9585;51.018;4.282;2023-07-13T08:04:15;5.97;;;1.95;;
18905;SDS011;9585;51.018;4.282;2023-07-13T08:06:43;6.97;;;2.50;;
18905;SDS011;9585;51.018;4.282;2023-07-13T08:09:10;6.78;;;1.90;;
18905;SDS011;9585;51.018;4.282;2023-07-13T08:11:38;8.63;;;2.25;;
18905;SDS011;9585;51.018;4.282;2023-07-13T08:14:05;8.20;;;2.20;;
18905;SDS011;9585;51.018;4.282;2023-07-13T08:16:36;6.68;;;1.80;;
18905;SDS011;9585;51.018;4.282;2023-07-13T08:19:03;5.78;;;2.08;;
18905;SDS011;9585;51.018;4.282;2023-07-13T08:21:31;5.28;;;1.80;;
18905;SDS011;9585;51.018;4.282;2023-07-13T08:23:58;5.88;;;1.73;;
18905;SDS011;9585;51.018;4.282;2023-07-13T08:26:26;4.88;;;1.95;;
18905;SDS011;9585;51.018;4.282;2023-07-13T08:28:54;4.60;;;2.10;;
18905;SDS011;9585;51.018;4.282;2023-07-13T08:31:21;6.65;;;1.85;;
18905;SDS011;9585;51.018;4.282;2023-07-13T08:33:50;6.78;;;2.05;;
18905;SDS011;9585;51.018;4.282;2023-07-13T08:36:18;6.32;;;1.80;;
18905;SDS011;9585;51.018;4.282;2023-07-13T08:38:45;5.25;;;1.75;;
18905;SDS011;9585;51.018;4.282;2023-07-13T08:41:13;4.60;;;1.83;;
18905;SDS011;9585;51.018;4.282;2023-07-13T08:43:44;8.10;;;2.00;;
18905;SDS011;9585;51.018;4.282;2023-07-13T08:46:15;5.45;;;1.63;;
18905;SDS011;9585;51.018;4.282;2023-07-13T08:48:46;7.10;;;2.10;;
18905;SDS011;9585;51.018;4.282;2023-07-13T08:51:26;4.53;;;1.35;;
18905;SDS011;9585;51.018;4.282;2023-07-13T08:54:00;6.90;;;2.08;;
18905;SDS011;9585;51.018;4.282;2023-07-13T08:56:30;7.53;;;2.00;;
18905;SDS011;9585;51.018;4.282;2023-07-13T08:59:00;5.72;;;1.70;;
18905;SDS011;9585;51.018;4.282;2023-07-13T09:01:40;5.13;;;1.70;;
18905;SDS011;9585;51.018;4.282;2023-07-13T09:04:22;4.07;;;1.70;;
18905;SDS011;9585;51.018;4.282;2023-07-13T09:06:55;7.03;;;1.63;;
18905;SDS011;9585;51.018;4.282;2023-07-13T09:09:31;4.88;;;1.60;;
18905;SDS011;9585;51.018;4.282;2023-07-13T09:12:09;3.33;;;1.60;;
18905;SDS011;9585;51.018;4.282;2023-07-13T09:14:42;5.43;;;1.67;;
18905;SDS011;9585;51.018;4.282;2023-07-13T09:17:14;2.97;;;1.45;;
18905;SDS011;9585;51.018;4.282;2023-07-13T09:19:48;7.20;;;1.85;;
18905;SDS011;9585;51.018;4.282;2023-07-13T09:22:23;5.10;;;1.55;;
18905;SDS011;9585;51.018;4.282;2023-07-13T09:24:55;5.88;;;1.63;;
18905;SDS011;9585;51.018;4.282;2023-07-13T09:27:29;5.10;;;1.58;;
18905;SDS011;9585;51.018;4.282;2023-07-13T09:30:02;3.03;;;1.70;;
18905;SDS011;9585;51.018;4.282;2023-07-13T09:32:51;5.85;;;1.67;;
18905;SDS011;9585;51.018;4.282;2023-07-13T09:35:22;6.15;;;1.77;;
18905;SDS011;9585;51.018;4.282;2023-07-13T09:37:57;6.05;;;1.90;;
18905;SDS011;9585;51.018;4.282;2023-07-13T09:40:28;6.45;;;1.83;;
18905;SDS011;9585;51.018;4.282;2023-07-13T09:43:05;4.25;;;1.40;;
18905;SDS011;9585;51.018;4.282;2023-07-13T09:45:36;4.40;;;1.75;;
18905;SDS011;9585;51.018;4.282;2023-07-13T09:48:05;4.93;;;1.40;;
18905;SDS011;9585;51.018;4.282;2023-07-13T09:50:39;4.93;;;1.73;;
18905;SDS011;9585;51.018;4.282;2023-07-13T09:53:11;3.70;;;1.50;;
18905;SDS011;9585;51.018;4.282;2023-07-13T09:55:40;4.47;;;1.67;;
18905;SDS011;9585;51.018;4.282;2023-07-13T09:58:09;5.10;;;1.58;;
18905;SDS011;9585;51.018;4.282;2023-07-13T10:00:40;3.58;;;1.73;;
18905;SDS011;9585;51.018;4.282;2023-07-13T10:03:17;4.35;;;1.50;;
18905;SDS011;9585;51.018;4.282;2023-07-13T10:05:49;3.28;;;1.23;;
18905;SDS011;9585;51.018;4.282;2023-07-13T10:08:20;4.88;;;1.48;;
18905;SDS011;9585;51.018;4.282;2023-07-13T10:10:54;5.65;;;1.70;;
18905;SDS011;9585;51.018;4.282;2023-07-13T10:13:26;3.45;;;1.52;;
18905;SDS011;9585;51.018;4.282;2023-07-13T10:15:59;4.40;;;1.58;;
18905;SDS011;9585;51.018;4.282;2023-07-13T10:18:28;5.53;;;1.42;;
18905;SDS011;9585;51.018;4.282;2023-07-13T10:21:07;5.28;;;1.30;;
18905;SDS011;9585;51.018;4.282;2023-07-13T10:23:39;4.13;;;1.40;;
18905;SDS011;9585;51.018;4.282;2023-07-13T10:26:09;5.72;;;1.42;;
18905;SDS011;9585;51.018;4.282;2023-07-13T10:28:42;5.88;;;1.67;;
18905;SDS011;9585;51.018;4.282;2023-07-13T10:31:15;3.88;;;1.42;;
18905;SDS011;9585;51.018;4.282;2023-07-13T10:33:44;4.55;;;1.67;;
18905;SDS011;9585;51.018;4.282;2023-07-13T10:39:00;4.03;;;1.30;;
18905;SDS011;9585;51.018;4.282;2023-07-13T10:41:34;3.38;;;1.40;;
18905;SDS011;9585;51.018;4.282;2023-07-13T10:44:09;2.95;;;1.10;;
18905;SDS011;9585;51.018;4.282;2023-07-13T10:46:46;2.53;;;1.08;;
18905;SDS011;9585;51.018;4.282;2023-07-13T10:49:15;3.30;;;1.50;;
18905;SDS011;9585;51.018;4.282;2023-07-13T10:51:45;4.97;;;1.73;;
18905;SDS011;9585;51.018;4.282;2023-07-13T10:54:18;5.32;;;1.50;;
18905;SDS011;9585;51.018;4.282;2023-07-13T10:56:52;3.60;;;1.38;;
18905;SDS011;9585;51.018;4.282;2023-07-13T10:59:35;4.10;;;1.20;;
18905;SDS011;9585;51.018;4.282;2023-07-13T11:02:10;4.45;;;1.55;;
18905;SDS011;9585;51.018;4.282;2023-07-13T11:04:42;3.83;;;1.05;;
18905;SDS011;9585;51.018;4.282;2023-07-13T11:07:20;4.38;;;1.52;;
18905;SDS011;9585;51.018;4.282;2023-07-13T11:09:50;3.95;;;1.70;;
18905;SDS011;9585;51.018;4.282;2023-07-13T11:15:30;7.03;;;2.30;;
18905;SDS011;9585;51.018;4.282;2023-07-13T11:18:19;6.03;;;1.85;;
18905;SDS011;9585;51.018;4.282;2023-07-13T11:20:48;4.90;;;1.73;;
18905;SDS011;9585;51.018;4.282;2023-07-13T11:23:26;3.65;;;1.88;;
18905;SDS011;9585;51.018;4.282;2023-07-13T11:25:56;5.22;;;1.77;;
18905;SDS011;9585;51.018;4.282;2023-07-13T11:28:26;2.47;;;1.40;;
18905;SDS011;9585;51.018;4.282;2023-07-13T11:31:12;4.63;;;1.52;;
18905;SDS011;9585;51.018;4.282;2023-07-13T11:33:49;4.65;;;1.75;;
18905;SDS011;9585;51.018;4.282;2023-07-13T11:36:23;4.35;;;1.60;;
18905;SDS011;9585;51.018;4.282;2023-07-13T11:39:00;3.05;;;1.40;;
18905;SDS011;9585;51.018;4.282;2023-07-13T11:41:31;15.30;;;2.20;;
18905;SDS011;9585;51.018;4.282;2023-07-13T11:44:07;19.85;;;2.65;;
18905;SDS011;9585;51.018;4.282;2023-07-13T11:46:43;12.55;;;2.03;;
18905;SDS011;9585;51.018;4.282;2023-07-13T11:49:15;4.97;;;1.90;;
18905;SDS011;9585;51.018;4.282;2023-07-13T11:51:43;9.68;;;1.95;;
18905;SDS011;9585;51.018;4.282;2023-07-13T11:54:18;4.32;;;1.80;;
18905;SDS011;9585;51.018;4.282;2023-07-13T11:56:53;6.82;;;1.80;;
18905;SDS011;9585;51.018;4.282;2023-07-13T11:59:23;3.53;;;1.52;;
18905;SDS011;9585;51.018;4.282;2023-07-13T12:01:51;7.13;;;1.67;;
18905;SDS011;9585;51.018;4.282;2023-07-13T12:04:21;11.70;;;2.38;;
18905;SDS011;9585;51.018;4.282;2023-07-13T12:06:55;4.38;;;1.98;;
18905;SDS011;9585;51.018;4.282;2023-07-13T12:09:33;3.30;;;1.60;;
18905;SDS011;9585;51.018;4.282;2023-07-13T12:12:11;4.65;;;1.83;;
18905;SDS011;9585;51.018;4.282;2023-07-13T12:14:39;2.55;;;1.70;;
18905;SDS011;9585;51.018;4.282;2023-07-13T12:17:17;5.25;;;1.90;;
18905;SDS011;9585;51.018;4.282;2023-07-13T12:19:47;3.33;;;1.60;;
18905;SDS011;9585;51.018;4.282;2023-07-13T12:22:15;4.22;;;1.70;;
18905;SDS011;9585;51.018;4.282;2023-07-13T12:24:47;5.20;;;1.90;;
18905;SDS011;9585;51.018;4.282;2023-07-13T12:27:19;3.97;;;1.63;;
18905;SDS011;9585;51.018;4.282;2023-07-13T12:29:49;2.13;;;1.50;;
18905;SDS011;9585;51.018;4.282;2023-07-13T12:32:19;1.77;;;1.45;;
18905;SDS011;9585;51.018;4.282;2023-07-13T12:34:51;2.97;;;1.40;;
18905;SDS011;9585;51.018;4.282;2023-07-13T12:37:21;3.42;;;1.50;;
18905;SDS011;9585;51.018;4.282;2023-07-13T12:39:51;2.92;;;1.45;;
18905;SDS011;9585;51.018;4.282;2023-07-13T12:42:20;3.22;;;1.50;;
18905;SDS011;9585;51.018;4.282;2023-07-13T12:44:53;2.70;;;1.50;;
18905;SDS011;9585;51.018;4.282;2023-07-13T12:47:23;2.03;;;1.30;;
18905;SDS011;9585;51.018;4.282;2023-07-13T12:49:53;2.28;;;1.27;;
18905;SDS011;9585;51.018;4.282;2023-07-13T12:52:24;1.38;;;1.20;;
18905;SDS011;9585;51.018;4.282;2023-07-13T12:55:05;1.40;;;1.10;;
18905;SDS011;9585;51.018;4.282;2023-07-13T12:57:41;2.42;;;1.50;;
18905;SDS011;9585;51.018;4.282;2023-07-13T13:02:58;1.90;;;1.33;;
18905;SDS011;9585;51.018;4.282;2023-07-13T13:05:31;2.45;;;1.40;;
18905;SDS011;9585;51.018;4.282;2023-07-13T13:07:59;2.13;;;1.20;;
18905;SDS011;9585;51.018;4.282;2023-07-13T13:10:29;2.33;;;1.40;;
18905;SDS011;9585;51.018;4.282;2023-07-13T13:12:57;3.38;;;1.42;;
18905;SDS011;9585;51.018;4.282;2023-07-13T13:15:25;3.08;;;1.20;;
18905;SDS011;9585;51.018;4.282;2023-07-13T13:17:53;2.13;;;1.20;;
18905;SDS011;9585;51.018;4.282;2023-07-13T13:20:21;2.40;;;1.23;;
18905;SDS011;9585;51.018;4.282;2023-07-13T13:22:52;2.22;;;1.45;;
18905;SDS011;9585;51.018;4.282;2023-07-13T13:25:20;3.03;;;1.52;;
18905;SDS011;9585;51.018;4.282;2023-07-13T13:27:49;3.40;;;1.33;;
18905;SDS011;9585;51.018;4.282;2023-07-13T13:30:17;3.90;;;1.23;;
18905;SDS011;9585;51.018;4.282;2023-07-13T13:32:46;2.63;;;1.50;;
18905;SDS011;9585;51.018;4.282;2023-07-13T13:35:15;3.15;;;1.20;;
18905;SDS011;9585;51.018;4.282;2023-07-13T13:37:44;2.65;;;1.00;;
18905;SDS011;9585;51.018;4.282;2023-07-13T13:40:16;2.88;;;1.35;;
18905;SDS011;9585;51.018;4.282;2023-07-13T13:42:45;1.50;;;1.10;;
18905;SDS011;9585;51.018;4.282;2023-07-13T13:45:15;2.03;;;1.10;;
18905;SDS011;9585;51.018;4.282;2023-07-13T13:47:43;3.20;;;1.20;;
18905;SDS011;9585;51.018;4.282;2023-07-13T13:50:14;2.92;;;1.38;;
18905;SDS011;9585;51.018;4.282;2023-07-13T13:52:43;2.47;;;1.10;;
18905;SDS011;9585;51.018;4.282;2023-07-13T13:55:12;1.90;;;1.38;;
18905;SDS011;9585;51.018;4.282;2023-07-13T13:57:40;2.65;;;1.45;;
18905;SDS011;9585;51.018;4.282;2023-07-13T14:00:08;2.83;;;1.15;;
18905;SDS011;9585;51.018;4.282;2023-07-13T14:02:41;2.60;;;1.20;;
18905;SDS011;9585;51.018;4.282;2023-07-13T14:05:13;3.05;;;1.40;;
18905;SDS011;9585;51.018;4.282;2023-07-13T14:07:44;1.75;;;1.20;;
18905;SDS011;9585;51.018;4.282;2023-07-13T14:10:12;3.13;;;1.10;;
18905;SDS011;9585;51.018;4.282;2023-07-13T14:12:42;2.55;;;1.20;;
18905;SDS011;9585;51.018;4.282;2023-07-13T14:15:13;1.70;;;1.13;;
18905;SDS011;9585;51.018;4.282;2023-07-13T14:17:45;3.13;;;1.02;;
18905;SDS011;9585;51.018;4.282;2023-07-13T14:20:15;1.45;;;1.00;;
18905;SDS011;9585;51.018;4.282;2023-07-13T14:22:43;2.05;;;1.17;;
18905;SDS011;9585;51.018;4.282;2023-07-13T14:25:11;2.72;;;1.38;;
18905;SDS011;9585;51.018;4.282;2023-07-13T14:27:40;2.53;;;1.08;;
18905;SDS011;9585;51.018;4.282;2023-07-13T14:30:12;3.03;;;1.20;;
18905;SDS011;9585;51.018;4.282;2023-07-13T14:32:41;3.10;;;1.27;;
18905;SDS011;9585;51.018;4.282;2023-07-13T14:35:11;2.45;;;1.30;;
18905;SDS011;9585;51.018;4.282;2023-07-13T14:37:41;3.63;;;1.60;;
18905;SDS011;9585;51.018;4.282;2023-07-13T14:40:12;2.35;;;1.30;;
18905;SDS011;9585;51.018;4.282;2023-07-13T14:42:42;3.78;;;1.45;;
18905;SDS011;9585;51.018;4.282;2023-07-13T14:45:12;2.70;;;1.27;;
18905;SDS011;9585;51.018;4.282;2023-07-13T14:47:41;3.63;;;1.63;;
18905;SDS011;9585;51.018;4.282;2023-07-13T14:50:16;1.80;;;1.30;;
18905;SDS011;9585;51.018;4.282;2023-07-13T14:52:46;4.90;;;1.55;;
18905;SDS011;9585;51.018;4.282;2023-07-13T14:55:15;4.00;;;1.30;;
18905;SDS011;9585;51.018;4.282;2023-07-13T14:57:44;1.40;;;1.20;;
18905;SDS011;9585;51.018;4.282;2023-07-13T15:00:13;2.28;;;1.15;;
18905;SDS011;9585;51.018;4.282;2023-07-13T15:02:42;3.05;;;1.30;;
18905;SDS011;9585;51.018;4.282;2023-07-13T15:05:15;3.72;;;1.60;;
18905;SDS011;9585;51.018;4.282;2023-07-13T15:07:44;2.63;;;1.10;;
18905;SDS011;9585;51.018;4.282;2023-07-13T15:10:15;2.47;;;1.20;;
18905;SDS011;9585;51.018;4.282;2023-07-13T15:12:44;2.47;;;1.30;;
18905;SDS011;9585;51.018;4.282;2023-07-13T15:15:12;10.45;;;4.85;;
18905;SDS011;9585;51.018;4.282;2023-07-13T15:17:41;5.63;;;2.05;;
18905;SDS011;9585;51.018;4.282;2023-07-13T15:20:15;3.38;;;1.50;;
18905;SDS011;9585;51.018;4.282;2023-07-13T15:22:46;4.75;;;1.42;;
18905;SDS011;9585;51.018;4.282;2023-07-13T15:25:16;3.17;;;1.23;;